sensor_id;sensor_type;location;lat;lon;timestamp;P1;durP1;ratioP1;P2;durP2;ratioP2
59028;SDS011;45919;51.420;5.454;2022-10-23T00:00:32;18.02;;;10.15;;
59028;SDS011;45919;51.420;5.454;2022-10-23T00:01:37;18.58;;;10.63;;
59028;SDS011;45919;51.420;5.454;2022-10-23T00:02:41;15.82;;;9.50;;
59028;SDS011;45919;51.420;5.454;2022-10-23T00:03:43;16.50;;;10.50;;
59028;SDS011;45919;51.420;5.454;2022-10-23T00:04:45;14.73;;;10.30;;
59028;SDS011;45919;51.420;5.454;2022-10-23T00:05:50;17.92;;;10.48;;
59028;SDS011;45919;51.420;5.454;2022-10-23T00:06:51;16.10;;;10.05;;
59028;SDS011;45919;51.420;5.454;2022-10-23T00:07:54;15.20;;;10.27;;
59028;SDS011;45919;51.420;5.454;2022-10-23T00:08:58;18.10;;;10.50;;
59028;SDS011;45919;51.420;5.454;2022-10-23T00:10:00;19.40;;;10.90;;
59028;SDS011;45919;51.420;5.454;2022-10-23T00:11:06;16.27;;;10.20;;
59028;SDS011;45919;51.420;5.454;2022-10-23T00:12:09;15.88;;;9.75;;
59028;SDS011;45919;51.420;5.454;2022-10-23T00:13:11;16.88;;;10.93;;
59028;SDS011;45919;51.420;5.454;2022-10-23T00:14:13;18.60;;;11.07;;
59028;SDS011;45919;51.420;5.454;2022-10-23T00:15:17;19.42;;;10.63;;
59028;SDS011;45919;51.420;5.454;2022-10-23T00:16:20;16.40;;;10.40;;
59028;SDS011;45919;51.420;5.454;2022-10-23T00:17:22;19.02;;;10.73;;
59028;SDS011;45919;51.420;5.454;2022-10-23T00:18:24;16.95;;;10.40;;
59028;SDS011;45919;51.420;5.454;2022-10-23T00:19:25;15.80;;;10.43;;
59028;SDS011;45919;51.420;5.454;2022-10-23T00:20:27;16.35;;;9.95;;
59028;SDS011;45919;51.420;5.454;2022-10-23T00:21:28;15.57;;;8.82;;
59028;SDS011;45919;51.420;5.454;2022-10-23T00:22:30;15.43;;;9.32;;
59028;SDS011;45919;51.420;5.454;2022-10-23T00:23:32;17.85;;;9.70;;
59028;SDS011;45919;51.420;5.454;2022-10-23T00:24:34;16.40;;;10.23;;
59028;SDS011;45919;51.420;5.454;2022-10-23T00:25:36;18.13;;;10.20;;
59028;SDS011;45919;51.420;5.454;2022-10-23T00:26:39;19.40;;;10.27;;
59028;SDS011;45919;51.420;5.454;2022-10-23T00:27:41;17.50;;;9.93;;
59028;SDS011;45919;51.420;5.454;2022-10-23T00:28:44;19.15;;;10.30;;
59028;SDS011;45919;51.420;5.454;2022-10-23T00:29:47;16.50;;;9.50;;
59028;SDS011;45919;51.420;5.454;2022-10-23T00:30:49;20.88;;;10.45;;
59028;SDS011;45919;51.420;5.454;2022-10-23T00:31:51;17.90;;;11.43;;
59028;SDS011;45919;51.420;5.454;2022-10-23T00:32:52;20.40;;;12.43;;
59028;SDS011;45919;51.420;5.454;2022-10-23T00:33:54;17.33;;;11.75;;
59028;SDS011;45919;51.420;5.454;2022-10-23T00:34:55;17.27;;;11.68;;
59028;SDS011;45919;51.420;5.454;2022-10-23T00:35:57;14.88;;;11.50;;
59028;SDS011;45919;51.420;5.454;2022-10-23T00:36:58;16.50;;;11.18;;
59028;SDS011;45919;51.420;5.454;2022-10-23T00:38:00;15.93;;;11.32;;
59028;SDS011;45919;51.420;5.454;2022-10-23T00:39:02;18.50;;;12.07;;
59028;SDS011;45919;51.420;5.454;2022-10-23T00:40:04;17.77;;;11.82;;
59028;SDS011;45919;51.420;5.454;2022-10-23T00:41:07;22.30;;;12.13;;
59028;SDS011;45919;51.420;5.454;2022-10-23T00:42:17;16.33;;;11.60;;
59028;SDS011;45919;51.420;5.454;2022-10-23T00:45:26;15.93;;;10.77;;
59028;SDS011;45919;51.420;5.454;2022-10-23T00:46:31;18.15;;;11.25;;
59028;SDS011;45919;51.420;5.454;2022-10-23T00:47:33;16.13;;;11.27;;
59028;SDS011;45919;51.420;5.454;2022-10-23T00:48:35;14.30;;;10.32;;
59028;SDS011;45919;51.420;5.454;2022-10-23T00:49:37;19.55;;;12.02;;
59028;SDS011;45919;51.420;5.454;2022-10-23T00:50:39;17.08;;;11.32;;
59028;SDS011;45919;51.420;5.454;2022-10-23T00:51:43;17.15;;;10.63;;
59028;SDS011;45919;51.420;5.454;2022-10-23T00:52:51;15.75;;;11.15;;
59028;SDS011;45919;51.420;5.454;2022-10-23T00:53:55;18.92;;;10.63;;
59028;SDS011;45919;51.420;5.454;2022-10-23T00:55:20;18.50;;;10.18;;
59028;SDS011;45919;51.420;5.454;2022-10-23T00:56:24;19.05;;;10.55;;
59028;SDS011;45919;51.420;5.454;2022-10-23T00:57:26;16.50;;;10.88;;
59028;SDS011;45919;51.420;5.454;2022-10-23T00:58:29;18.42;;;11.30;;
59028;SDS011;45919;51.420;5.454;2022-10-23T00:59:30;15.88;;;10.48;;
59028;SDS011;45919;51.420;5.454;2022-10-23T01:00:42;17.17;;;11.18;;
59028;SDS011;45919;51.420;5.454;2022-10-23T01:01:44;16.17;;;10.20;;
59028;SDS011;45919;51.420;5.454;2022-10-23T01:02:46;17.33;;;11.07;;
59028;SDS011;45919;51.420;5.454;2022-10-23T01:03:47;18.33;;;10.75;;
59028;SDS011;45919;51.420;5.454;2022-10-23T01:04:49;19.38;;;10.85;;
59028;SDS011;45919;51.420;5.454;2022-10-23T01:05:53;16.45;;;10.75;;
59028;SDS011;45919;51.420;5.454;2022-10-23T01:08:09;13.48;;;10.23;;
59028;SDS011;45919;51.420;5.454;2022-10-23T01:09:19;16.50;;;11.07;;
59028;SDS011;45919;51.420;5.454;2022-10-23T01:11:50;23.60;;;11.55;;
59028;SDS011;45919;51.420;5.454;2022-10-23T01:13:01;16.98;;;10.98;;
59028;SDS011;45919;51.420;5.454;2022-10-23T01:16:33;22.80;;;11.15;;
59028;SDS011;45919;51.420;5.454;2022-10-23T01:20:13;15.27;;;10.20;;
59028;SDS011;45919;51.420;5.454;2022-10-23T01:21:40;18.88;;;10.88;;
59028;SDS011;45919;51.420;5.454;2022-10-23T01:24:38;15.52;;;9.50;;
59028;SDS011;45919;51.420;5.454;2022-10-23T01:27:24;13.88;;;9.60;;
59028;SDS011;45919;51.420;5.454;2022-10-23T01:28:32;17.73;;;11.13;;
59028;SDS011;45919;51.420;5.454;2022-10-23T01:31:01;14.20;;;9.75;;
59028;SDS011;45919;51.420;5.454;2022-10-23T01:33:24;17.65;;;10.32;;
59028;SDS011;45919;51.420;5.454;2022-10-23T01:35:48;15.40;;;10.93;;
59028;SDS011;45919;51.420;5.454;2022-10-23T01:36:54;15.75;;;10.40;;
59028;SDS011;45919;51.420;5.454;2022-10-23T01:38:08;15.35;;;10.93;;
59028;SDS011;45919;51.420;5.454;2022-10-23T01:39:17;15.88;;;10.45;;
59028;SDS011;45919;51.420;5.454;2022-10-23T01:40:27;15.35;;;10.43;;
59028;SDS011;45919;51.420;5.454;2022-10-23T01:41:43;15.18;;;10.23;;
59028;SDS011;45919;51.420;5.454;2022-10-23T01:42:50;20.02;;;10.75;;
59028;SDS011;45919;51.420;5.454;2022-10-23T01:43:55;16.00;;;10.23;;
59028;SDS011;45919;51.420;5.454;2022-10-23T01:45:27;14.40;;;10.35;;
59028;SDS011;45919;51.420;5.454;2022-10-23T01:47:37;16.50;;;8.98;;
59028;SDS011;45919;51.420;5.454;2022-10-23T01:48:44;14.85;;;9.95;;
59028;SDS011;45919;51.420;5.454;2022-10-23T01:49:49;13.88;;;9.70;;
59028;SDS011;45919;51.420;5.454;2022-10-23T01:50:53;14.85;;;10.32;;
59028;SDS011;45919;51.420;5.454;2022-10-23T01:51:58;18.27;;;10.80;;
59028;SDS011;45919;51.420;5.454;2022-10-23T01:53:03;16.05;;;10.50;;
59028;SDS011;45919;51.420;5.454;2022-10-23T01:54:05;14.10;;;10.32;;
59028;SDS011;45919;51.420;5.454;2022-10-23T01:55:09;19.88;;;10.65;;
59028;SDS011;45919;51.420;5.454;2022-10-23T01:56:13;16.52;;;9.98;;
59028;SDS011;45919;51.420;5.454;2022-10-23T01:57:23;16.20;;;10.68;;
59028;SDS011;45919;51.420;5.454;2022-10-23T01:58:27;13.57;;;10.10;;
59028;SDS011;45919;51.420;5.454;2022-10-23T01:59:33;15.73;;;10.38;;
59028;SDS011;45919;51.420;5.454;2022-10-23T02:00:37;16.25;;;10.20;;
59028;SDS011;45919;51.420;5.454;2022-10-23T02:01:42;13.35;;;9.45;;
59028;SDS011;45919;51.420;5.454;2022-10-23T02:02:47;15.50;;;10.38;;
59028;SDS011;45919;51.420;5.454;2022-10-23T02:03:51;14.98;;;9.90;;
59028;SDS011;45919;51.420;5.454;2022-10-23T02:05:08;16.38;;;10.45;;
59028;SDS011;45919;51.420;5.454;2022-10-23T02:06:15;14.35;;;9.45;;
59028;SDS011;45919;51.420;5.454;2022-10-23T02:07:16;16.63;;;10.23;;
59028;SDS011;45919;51.420;5.454;2022-10-23T02:08:18;16.42;;;9.77;;
59028;SDS011;45919;51.420;5.454;2022-10-23T02:09:20;17.25;;;10.20;;
59028;SDS011;45919;51.420;5.454;2022-10-23T02:10:22;15.73;;;9.60;;
59028;SDS011;45919;51.420;5.454;2022-10-23T02:11:36;14.95;;;9.52;;
59028;SDS011;45919;51.420;5.454;2022-10-23T02:14:07;14.25;;;8.80;;
59028;SDS011;45919;51.420;5.454;2022-10-23T02:19:20;16.48;;;8.95;;
59028;SDS011;45919;51.420;5.454;2022-10-23T02:21:59;21.13;;;10.10;;
59028;SDS011;45919;51.420;5.454;2022-10-23T02:24:12;16.10;;;10.18;;
59028;SDS011;45919;51.420;5.454;2022-10-23T02:25:19;13.10;;;9.23;;
59028;SDS011;45919;51.420;5.454;2022-10-23T02:27:52;14.60;;;8.77;;
59028;SDS011;45919;51.420;5.454;2022-10-23T02:29:05;17.20;;;9.60;;
59028;SDS011;45919;51.420;5.454;2022-10-23T02:30:18;18.10;;;9.88;;
59028;SDS011;45919;51.420;5.454;2022-10-23T02:31:21;17.20;;;9.65;;
59028;SDS011;45919;51.420;5.454;2022-10-23T02:32:24;16.83;;;9.15;;
59028;SDS011;45919;51.420;5.454;2022-10-23T02:33:27;16.48;;;9.60;;
59028;SDS011;45919;51.420;5.454;2022-10-23T02:34:31;19.10;;;9.13;;
59028;SDS011;45919;51.420;5.454;2022-10-23T02:35:33;17.15;;;10.13;;
59028;SDS011;45919;51.420;5.454;2022-10-23T02:36:35;13.40;;;9.15;;
59028;SDS011;45919;51.420;5.454;2022-10-23T02:37:37;16.30;;;9.40;;
59028;SDS011;45919;51.420;5.454;2022-10-23T02:38:40;16.48;;;9.77;;
59028;SDS011;45919;51.420;5.454;2022-10-23T02:39:43;14.63;;;9.68;;
59028;SDS011;45919;51.420;5.454;2022-10-23T02:40:45;12.05;;;9.38;;
59028;SDS011;45919;51.420;5.454;2022-10-23T02:43:02;14.20;;;9.98;;
59028;SDS011;45919;51.420;5.454;2022-10-23T02:45:45;17.58;;;9.68;;
59028;SDS011;45919;51.420;5.454;2022-10-23T02:48:11;12.90;;;9.15;;
59028;SDS011;45919;51.420;5.454;2022-10-23T02:49:18;17.00;;;9.88;;
59028;SDS011;45919;51.420;5.454;2022-10-23T02:50:46;13.23;;;8.68;;
59028;SDS011;45919;51.420;5.454;2022-10-23T02:52:02;13.63;;;8.60;;
59028;SDS011;45919;51.420;5.454;2022-10-23T02:57:04;12.63;;;9.27;;
59028;SDS011;45919;51.420;5.454;2022-10-23T02:59:40;14.45;;;8.90;;
59028;SDS011;45919;51.420;5.454;2022-10-23T03:00:48;14.88;;;9.05;;
59028;SDS011;45919;51.420;5.454;2022-10-23T03:01:54;15.75;;;9.13;;
59028;SDS011;45919;51.420;5.454;2022-10-23T03:03:09;14.93;;;9.13;;
59028;SDS011;45919;51.420;5.454;2022-10-23T03:04:15;14.27;;;9.18;;
59028;SDS011;45919;51.420;5.454;2022-10-23T03:05:21;20.25;;;10.07;;
59028;SDS011;45919;51.420;5.454;2022-10-23T03:06:25;13.18;;;9.48;;
59028;SDS011;45919;51.420;5.454;2022-10-23T03:07:27;14.75;;;8.88;;
59028;SDS011;45919;51.420;5.454;2022-10-23T03:08:28;13.45;;;9.48;;
59028;SDS011;45919;51.420;5.454;2022-10-23T03:09:30;15.52;;;8.77;;
59028;SDS011;45919;51.420;5.454;2022-10-23T03:10:32;14.73;;;9.15;;
59028;SDS011;45919;51.420;5.454;2022-10-23T03:11:33;16.77;;;9.75;;
59028;SDS011;45919;51.420;5.454;2022-10-23T03:12:35;13.93;;;8.85;;
59028;SDS011;45919;51.420;5.454;2022-10-23T03:13:37;16.58;;;9.45;;
59028;SDS011;45919;51.420;5.454;2022-10-23T03:14:39;14.88;;;9.68;;
59028;SDS011;45919;51.420;5.454;2022-10-23T03:15:40;15.77;;;9.23;;
59028;SDS011;45919;51.420;5.454;2022-10-23T03:16:42;14.88;;;9.82;;
59028;SDS011;45919;51.420;5.454;2022-10-23T03:17:43;15.73;;;9.55;;
59028;SDS011;45919;51.420;5.454;2022-10-23T03:18:45;12.40;;;9.20;;
59028;SDS011;45919;51.420;5.454;2022-10-23T03:19:46;16.45;;;9.77;;
59028;SDS011;45919;51.420;5.454;2022-10-23T03:20:48;16.20;;;10.20;;
59028;SDS011;45919;51.420;5.454;2022-10-23T03:21:50;13.82;;;8.77;;
59028;SDS011;45919;51.420;5.454;2022-10-23T03:22:51;13.32;;;9.02;;
59028;SDS011;45919;51.420;5.454;2022-10-23T03:23:53;14.57;;;9.13;;
59028;SDS011;45919;51.420;5.454;2022-10-23T03:24:54;14.73;;;9.60;;
59028;SDS011;45919;51.420;5.454;2022-10-23T03:25:56;15.07;;;8.80;;
59028;SDS011;45919;51.420;5.454;2022-10-23T03:26:57;16.60;;;9.50;;
59028;SDS011;45919;51.420;5.454;2022-10-23T03:27:59;15.77;;;9.43;;
59028;SDS011;45919;51.420;5.454;2022-10-23T03:29:00;12.80;;;9.63;;
59028;SDS011;45919;51.420;5.454;2022-10-23T03:30:02;14.50;;;8.85;;
59028;SDS011;45919;51.420;5.454;2022-10-23T03:31:06;17.48;;;9.30;;
59028;SDS011;45919;51.420;5.454;2022-10-23T03:32:07;14.05;;;8.75;;
59028;SDS011;45919;51.420;5.454;2022-10-23T03:33:09;16.15;;;9.30;;
59028;SDS011;45919;51.420;5.454;2022-10-23T03:34:11;14.40;;;9.00;;
59028;SDS011;45919;51.420;5.454;2022-10-23T03:35:14;15.18;;;9.20;;
59028;SDS011;45919;51.420;5.454;2022-10-23T03:36:15;13.25;;;9.05;;
59028;SDS011;45919;51.420;5.454;2022-10-23T03:37:17;17.17;;;9.75;;
59028;SDS011;45919;51.420;5.454;2022-10-23T03:38:18;13.73;;;9.35;;
59028;SDS011;45919;51.420;5.454;2022-10-23T03:39:20;14.10;;;9.18;;
59028;SDS011;45919;51.420;5.454;2022-10-23T03:40:22;15.93;;;9.63;;
59028;SDS011;45919;51.420;5.454;2022-10-23T03:41:23;14.85;;;9.57;;
59028;SDS011;45919;51.420;5.454;2022-10-23T03:42:25;15.27;;;9.65;;
59028;SDS011;45919;51.420;5.454;2022-10-23T03:43:27;16.73;;;9.85;;
59028;SDS011;45919;51.420;5.454;2022-10-23T03:44:28;14.75;;;9.50;;
59028;SDS011;45919;51.420;5.454;2022-10-23T03:45:31;16.27;;;9.07;;
59028;SDS011;45919;51.420;5.454;2022-10-23T03:46:32;13.45;;;9.02;;
59028;SDS011;45919;51.420;5.454;2022-10-23T03:47:34;14.85;;;9.82;;
59028;SDS011;45919;51.420;5.454;2022-10-23T03:48:40;16.92;;;9.57;;
59028;SDS011;45919;51.420;5.454;2022-10-23T03:49:42;18.05;;;9.60;;
59028;SDS011;45919;51.420;5.454;2022-10-23T03:50:44;15.90;;;9.77;;
59028;SDS011;45919;51.420;5.454;2022-10-23T03:51:45;15.75;;;9.70;;
59028;SDS011;45919;51.420;5.454;2022-10-23T03:52:52;15.52;;;10.18;;
59028;SDS011;45919;51.420;5.454;2022-10-23T03:53:54;17.48;;;9.27;;
59028;SDS011;45919;51.420;5.454;2022-10-23T03:54:55;14.90;;;9.30;;
59028;SDS011;45919;51.420;5.454;2022-10-23T03:55:57;15.32;;;9.02;;
59028;SDS011;45919;51.420;5.454;2022-10-23T03:56:58;13.27;;;9.20;;
59028;SDS011;45919;51.420;5.454;2022-10-23T03:58:00;15.65;;;8.88;;
59028;SDS011;45919;51.420;5.454;2022-10-23T03:59:02;14.48;;;9.60;;
59028;SDS011;45919;51.420;5.454;2022-10-23T04:00:04;14.73;;;9.63;;
59028;SDS011;45919;51.420;5.454;2022-10-23T04:01:08;16.17;;;9.60;;
59028;SDS011;45919;51.420;5.454;2022-10-23T04:02:10;13.80;;;9.57;;
59028;SDS011;45919;51.420;5.454;2022-10-23T04:03:11;15.10;;;9.40;;
59028;SDS011;45919;51.420;5.454;2022-10-23T04:04:13;13.48;;;9.63;;
59028;SDS011;45919;51.420;5.454;2022-10-23T04:05:15;14.05;;;8.85;;
59028;SDS011;45919;51.420;5.454;2022-10-23T04:06:17;15.45;;;9.13;;
59028;SDS011;45919;51.420;5.454;2022-10-23T04:07:18;16.27;;;9.82;;
59028;SDS011;45919;51.420;5.454;2022-10-23T04:08:20;14.88;;;8.88;;
59028;SDS011;45919;51.420;5.454;2022-10-23T04:09:22;17.13;;;9.57;;
59028;SDS011;45919;51.420;5.454;2022-10-23T04:10:23;13.63;;;9.10;;
59028;SDS011;45919;51.420;5.454;2022-10-23T04:11:25;16.63;;;9.38;;
59028;SDS011;45919;51.420;5.454;2022-10-23T04:12:26;15.20;;;8.98;;
59028;SDS011;45919;51.420;5.454;2022-10-23T04:13:28;12.80;;;9.27;;
59028;SDS011;45919;51.420;5.454;2022-10-23T04:14:29;12.05;;;8.85;;
59028;SDS011;45919;51.420;5.454;2022-10-23T04:15:31;15.02;;;9.25;;
59028;SDS011;45919;51.420;5.454;2022-10-23T04:16:33;14.90;;;8.50;;
59028;SDS011;45919;51.420;5.454;2022-10-23T04:17:34;15.98;;;9.45;;
59028;SDS011;45919;51.420;5.454;2022-10-23T04:18:36;15.32;;;9.40;;
59028;SDS011;45919;51.420;5.454;2022-10-23T04:19:37;19.98;;;9.82;;
59028;SDS011;45919;51.420;5.454;2022-10-23T04:20:39;16.42;;;9.63;;
59028;SDS011;45919;51.420;5.454;2022-10-23T04:21:40;14.75;;;9.55;;
59028;SDS011;45919;51.420;5.454;2022-10-23T04:22:42;13.70;;;9.32;;
59028;SDS011;45919;51.420;5.454;2022-10-23T04:23:44;12.88;;;8.80;;
59028;SDS011;45919;51.420;5.454;2022-10-23T04:24:45;12.90;;;8.75;;
59028;SDS011;45919;51.420;5.454;2022-10-23T04:25:48;17.38;;;9.82;;
59028;SDS011;45919;51.420;5.454;2022-10-23T04:26:49;14.60;;;9.05;;
59028;SDS011;45919;51.420;5.454;2022-10-23T04:27:51;15.55;;;9.88;;
59028;SDS011;45919;51.420;5.454;2022-10-23T04:28:53;15.75;;;8.98;;
59028;SDS011;45919;51.420;5.454;2022-10-23T04:29:54;12.55;;;9.70;;
59028;SDS011;45919;51.420;5.454;2022-10-23T04:30:56;13.82;;;9.45;;
59028;SDS011;45919;51.420;5.454;2022-10-23T04:31:58;17.98;;;9.20;;
59028;SDS011;45919;51.420;5.454;2022-10-23T04:33:00;14.50;;;9.55;;
59028;SDS011;45919;51.420;5.454;2022-10-23T04:34:01;13.55;;;9.02;;
59028;SDS011;45919;51.420;5.454;2022-10-23T04:35:03;13.38;;;9.75;;
59028;SDS011;45919;51.420;5.454;2022-10-23T04:36:05;13.80;;;9.20;;
59028;SDS011;45919;51.420;5.454;2022-10-23T04:37:07;13.25;;;9.65;;
59028;SDS011;45919;51.420;5.454;2022-10-23T04:38:08;12.38;;;9.10;;
59028;SDS011;45919;51.420;5.454;2022-10-23T04:39:10;14.43;;;9.75;;
59028;SDS011;45919;51.420;5.454;2022-10-23T04:40:11;14.25;;;9.43;;
59028;SDS011;45919;51.420;5.454;2022-10-23T04:41:13;16.95;;;9.38;;
59028;SDS011;45919;51.420;5.454;2022-10-23T04:42:15;14.75;;;8.85;;
59028;SDS011;45919;51.420;5.454;2022-10-23T04:43:16;14.63;;;9.30;;
59028;SDS011;45919;51.420;5.454;2022-10-23T04:44:18;15.70;;;9.18;;
59028;SDS011;45919;51.420;5.454;2022-10-23T04:45:20;15.85;;;9.50;;
59028;SDS011;45919;51.420;5.454;2022-10-23T04:46:21;18.45;;;9.98;;
59028;SDS011;45919;51.420;5.454;2022-10-23T04:47:23;18.92;;;9.57;;
59028;SDS011;45919;51.420;5.454;2022-10-23T04:48:25;14.90;;;9.45;;
59028;SDS011;45919;51.420;5.454;2022-10-23T04:49:27;15.55;;;9.60;;
59028;SDS011;45919;51.420;5.454;2022-10-23T04:50:28;17.00;;;9.43;;
59028;SDS011;45919;51.420;5.454;2022-10-23T04:51:30;17.55;;;9.75;;
59028;SDS011;45919;51.420;5.454;2022-10-23T04:52:31;16.42;;;9.95;;
59028;SDS011;45919;51.420;5.454;2022-10-23T04:53:33;12.73;;;9.57;;
59028;SDS011;45919;51.420;5.454;2022-10-23T04:54:37;14.68;;;10.68;;
59028;SDS011;45919;51.420;5.454;2022-10-23T04:55:47;15.63;;;9.32;;
59028;SDS011;45919;51.420;5.454;2022-10-23T04:56:53;20.00;;;9.88;;
59028;SDS011;45919;51.420;5.454;2022-10-23T04:57:54;15.27;;;9.55;;
59028;SDS011;45919;51.420;5.454;2022-10-23T04:58:56;17.40;;;10.23;;
59028;SDS011;45919;51.420;5.454;2022-10-23T04:59:57;13.77;;;9.38;;
59028;SDS011;45919;51.420;5.454;2022-10-23T05:00:59;15.82;;;10.48;;
59028;SDS011;45919;51.420;5.454;2022-10-23T05:02:00;17.90;;;10.20;;
59028;SDS011;45919;51.420;5.454;2022-10-23T05:03:02;15.23;;;9.50;;
59028;SDS011;45919;51.420;5.454;2022-10-23T05:04:04;18.52;;;9.68;;
59028;SDS011;45919;51.420;5.454;2022-10-23T05:05:05;15.20;;;9.95;;
59028;SDS011;45919;51.420;5.454;2022-10-23T05:06:07;16.17;;;9.98;;
59028;SDS011;45919;51.420;5.454;2022-10-23T05:07:09;14.18;;;9.35;;
59028;SDS011;45919;51.420;5.454;2022-10-23T05:08:11;16.55;;;9.82;;
59028;SDS011;45919;51.420;5.454;2022-10-23T05:09:13;16.60;;;9.55;;
59028;SDS011;45919;51.420;5.454;2022-10-23T05:10:15;16.85;;;10.32;;
59028;SDS011;45919;51.420;5.454;2022-10-23T05:11:16;18.90;;;10.52;;
59028;SDS011;45919;51.420;5.454;2022-10-23T05:12:18;14.38;;;9.98;;
59028;SDS011;45919;51.420;5.454;2022-10-23T05:13:20;16.70;;;9.70;;
59028;SDS011;45919;51.420;5.454;2022-10-23T05:14:21;21.17;;;10.30;;
59028;SDS011;45919;51.420;5.454;2022-10-23T05:15:23;14.45;;;8.63;;
59028;SDS011;45919;51.420;5.454;2022-10-23T05:17:36;15.63;;;9.27;;
59028;SDS011;45919;51.420;5.454;2022-10-23T05:18:44;17.30;;;10.13;;
59028;SDS011;45919;51.420;5.454;2022-10-23T05:19:52;14.15;;;9.18;;
59028;SDS011;45919;51.420;5.454;2022-10-23T05:20:58;13.27;;;8.55;;
59028;SDS011;45919;51.420;5.454;2022-10-23T05:22:26;12.82;;;9.07;;
59028;SDS011;45919;51.420;5.454;2022-10-23T05:23:32;16.60;;;9.93;;
59028;SDS011;45919;51.420;5.454;2022-10-23T05:24:38;16.95;;;9.48;;
59028;SDS011;45919;51.420;5.454;2022-10-23T05:25:40;17.13;;;9.60;;
59028;SDS011;45919;51.420;5.454;2022-10-23T05:26:42;17.58;;;9.30;;
59028;SDS011;45919;51.420;5.454;2022-10-23T05:27:43;15.57;;;9.73;;
59028;SDS011;45919;51.420;5.454;2022-10-23T05:28:45;14.52;;;8.70;;
59028;SDS011;45919;51.420;5.454;2022-10-23T05:29:47;14.35;;;9.10;;
59028;SDS011;45919;51.420;5.454;2022-10-23T05:30:48;15.32;;;9.35;;
59028;SDS011;45919;51.420;5.454;2022-10-23T05:31:51;14.77;;;9.00;;
59028;SDS011;45919;51.420;5.454;2022-10-23T05:32:56;15.63;;;8.77;;
59028;SDS011;45919;51.420;5.454;2022-10-23T05:33:59;15.00;;;9.35;;
59028;SDS011;45919;51.420;5.454;2022-10-23T05:35:02;13.60;;;9.05;;
59028;SDS011;45919;51.420;5.454;2022-10-23T05:36:08;15.32;;;8.95;;
59028;SDS011;45919;51.420;5.454;2022-10-23T05:37:12;16.15;;;8.55;;
59028;SDS011;45919;51.420;5.454;2022-10-23T05:38:15;14.40;;;8.85;;
59028;SDS011;45919;51.420;5.454;2022-10-23T05:39:18;13.70;;;8.35;;
59028;SDS011;45919;51.420;5.454;2022-10-23T05:40:20;15.35;;;8.48;;
59028;SDS011;45919;51.420;5.454;2022-10-23T05:41:21;13.98;;;8.48;;
59028;SDS011;45919;51.420;5.454;2022-10-23T05:42:23;15.05;;;8.77;;
59028;SDS011;45919;51.420;5.454;2022-10-23T05:43:25;12.57;;;9.30;;
59028;SDS011;45919;51.420;5.454;2022-10-23T05:44:27;14.30;;;8.55;;
59028;SDS011;45919;51.420;5.454;2022-10-23T05:45:29;16.33;;;8.75;;
59028;SDS011;45919;51.420;5.454;2022-10-23T05:46:30;17.25;;;8.80;;
59028;SDS011;45919;51.420;5.454;2022-10-23T05:47:32;11.93;;;8.18;;
59028;SDS011;45919;51.420;5.454;2022-10-23T05:48:33;13.68;;;8.45;;
59028;SDS011;45919;51.420;5.454;2022-10-23T05:49:35;13.55;;;8.68;;
59028;SDS011;45919;51.420;5.454;2022-10-23T05:50:37;14.82;;;9.20;;
59028;SDS011;45919;51.420;5.454;2022-10-23T05:51:39;13.73;;;8.55;;
59028;SDS011;45919;51.420;5.454;2022-10-23T05:52:40;12.75;;;8.38;;
59028;SDS011;45919;51.420;5.454;2022-10-23T05:53:42;13.82;;;7.93;;
59028;SDS011;45919;51.420;5.454;2022-10-23T05:54:43;16.75;;;8.65;;
59028;SDS011;45919;51.420;5.454;2022-10-23T05:55:45;14.80;;;8.38;;
59028;SDS011;45919;51.420;5.454;2022-10-23T05:56:47;12.07;;;7.82;;
59028;SDS011;45919;51.420;5.454;2022-10-23T05:57:48;12.15;;;8.05;;
59028;SDS011;45919;51.420;5.454;2022-10-23T05:58:50;11.45;;;8.23;;
59028;SDS011;45919;51.420;5.454;2022-10-23T05:59:51;11.52;;;8.07;;
59028;SDS011;45919;51.420;5.454;2022-10-23T06:00:53;11.57;;;7.85;;
59028;SDS011;45919;51.420;5.454;2022-10-23T06:01:54;13.27;;;8.35;;
59028;SDS011;45919;51.420;5.454;2022-10-23T06:02:59;12.00;;;8.40;;
59028;SDS011;45919;51.420;5.454;2022-10-23T06:04:01;15.75;;;7.97;;
59028;SDS011;45919;51.420;5.454;2022-10-23T06:05:04;15.80;;;8.05;;
59028;SDS011;45919;51.420;5.454;2022-10-23T06:06:06;14.07;;;7.55;;
59028;SDS011;45919;51.420;5.454;2022-10-23T06:07:08;11.10;;;8.00;;
59028;SDS011;45919;51.420;5.454;2022-10-23T06:08:09;12.55;;;7.60;;
59028;SDS011;45919;51.420;5.454;2022-10-23T06:09:11;11.95;;;7.53;;
59028;SDS011;45919;51.420;5.454;2022-10-23T06:10:13;15.55;;;7.63;;
59028;SDS011;45919;51.420;5.454;2022-10-23T06:11:15;15.20;;;8.13;;
59028;SDS011;45919;51.420;5.454;2022-10-23T06:12:17;12.25;;;7.22;;
59028;SDS011;45919;51.420;5.454;2022-10-23T06:13:20;12.90;;;7.70;;
59028;SDS011;45919;51.420;5.454;2022-10-23T06:14:22;12.70;;;7.75;;
59028;SDS011;45919;51.420;5.454;2022-10-23T06:15:23;14.15;;;7.65;;
59028;SDS011;45919;51.420;5.454;2022-10-23T06:16:25;11.18;;;7.20;;
59028;SDS011;45919;51.420;5.454;2022-10-23T06:17:27;13.55;;;7.45;;
59028;SDS011;45919;51.420;5.454;2022-10-23T06:18:29;16.88;;;7.68;;
59028;SDS011;45919;51.420;5.454;2022-10-23T06:19:30;15.45;;;8.25;;
59028;SDS011;45919;51.420;5.454;2022-10-23T06:20:35;13.45;;;7.38;;
59028;SDS011;45919;51.420;5.454;2022-10-23T06:21:39;14.82;;;6.97;;
59028;SDS011;45919;51.420;5.454;2022-10-23T06:22:41;11.75;;;7.60;;
59028;SDS011;45919;51.420;5.454;2022-10-23T06:23:42;12.88;;;7.70;;
59028;SDS011;45919;51.420;5.454;2022-10-23T06:24:45;13.63;;;7.40;;
59028;SDS011;45919;51.420;5.454;2022-10-23T06:25:50;12.35;;;7.82;;
59028;SDS011;45919;51.420;5.454;2022-10-23T06:26:53;12.88;;;7.47;;
59028;SDS011;45919;51.420;5.454;2022-10-23T06:27:55;12.98;;;7.93;;
59028;SDS011;45919;51.420;5.454;2022-10-23T06:28:56;16.25;;;8.00;;
59028;SDS011;45919;51.420;5.454;2022-10-23T06:29:58;10.48;;;7.45;;
59028;SDS011;45919;51.420;5.454;2022-10-23T06:31:03;15.02;;;7.88;;
59028;SDS011;45919;51.420;5.454;2022-10-23T06:32:06;11.98;;;7.15;;
59028;SDS011;45919;51.420;5.454;2022-10-23T06:33:07;13.38;;;7.30;;
59028;SDS011;45919;51.420;5.454;2022-10-23T06:34:12;11.88;;;6.85;;
59028;SDS011;45919;51.420;5.454;2022-10-23T06:35:13;13.80;;;7.88;;
59028;SDS011;45919;51.420;5.454;2022-10-23T06:36:15;13.38;;;7.93;;
59028;SDS011;45919;51.420;5.454;2022-10-23T06:37:16;12.60;;;7.57;;
59028;SDS011;45919;51.420;5.454;2022-10-23T06:38:18;11.80;;;7.25;;
59028;SDS011;45919;51.420;5.454;2022-10-23T06:39:19;13.60;;;7.30;;
59028;SDS011;45919;51.420;5.454;2022-10-23T06:40:22;12.70;;;7.72;;
59028;SDS011;45919;51.420;5.454;2022-10-23T06:41:23;12.15;;;7.30;;
59028;SDS011;45919;51.420;5.454;2022-10-23T06:42:25;13.07;;;7.60;;
59028;SDS011;45919;51.420;5.454;2022-10-23T06:43:27;11.57;;;6.90;;
59028;SDS011;45919;51.420;5.454;2022-10-23T06:44:28;11.30;;;7.35;;
59028;SDS011;45919;51.420;5.454;2022-10-23T06:45:31;12.88;;;7.47;;
59028;SDS011;45919;51.420;5.454;2022-10-23T06:46:34;11.90;;;7.60;;
59028;SDS011;45919;51.420;5.454;2022-10-23T06:49:08;11.70;;;6.97;;
59028;SDS011;45919;51.420;5.454;2022-10-23T06:50:16;11.32;;;7.10;;
59028;SDS011;45919;51.420;5.454;2022-10-23T06:51:19;11.23;;;6.82;;
59028;SDS011;45919;51.420;5.454;2022-10-23T06:52:23;13.85;;;7.65;;
59028;SDS011;45919;51.420;5.454;2022-10-23T06:53:35;14.00;;;6.88;;
59028;SDS011;45919;51.420;5.454;2022-10-23T06:54:37;11.20;;;7.10;;
59028;SDS011;45919;51.420;5.454;2022-10-23T06:55:39;11.95;;;7.25;;